Terminal Aerodrome Forecast
Issued by NWS

Home | Current Version | Previous Version | Text Only | Print | Product List | Glossary On
Versions: 1 2 3 4 5 6 7 8 9 10 11 12
000
FTPA31 PHFO 280538
TAFHKO
TAF
PHKO 280538Z 2806/0106 17006KT P6SM FEW030 BKN060 OVC200
     FM280700 08005KT P6SM FEW030 BKN050 OVC200
     FM282200 21007KT P6SM VCSH SCT030 BKN050 OVC150
     FM010500 VRB06KT P6SM VCSH SCT030 BKN050 OVC100=

USA.gov is the U.S. government's official web portal to all federal, state and local government web resources and services.